createdAt,value
2019-04-30T00:05:05.446Z,33.799999
2019-04-30T00:10:35.782Z,34.799999
2019-04-30T00:15:57.257Z,34.599998
2019-04-30T00:21:18.634Z,33.200001
2019-04-30T00:26:39.806Z,34.200001
2019-04-30T00:32:04.197Z,35.900002
2019-04-30T00:37:25.797Z,34.700001
2019-04-30T00:42:49.009Z,35.299999
2019-04-30T00:48:11.709Z,39.400002
2019-04-30T00:53:35.899Z,36.700001
2019-04-30T00:59:02.381Z,36.900002
2019-04-30T01:04:24.371Z,37.700001
2019-04-30T01:09:49.355Z,37
2019-04-30T01:15:14.222Z,38.599998
2019-04-30T01:20:34.150Z,38
2019-04-30T01:25:58.467Z,41.200001
2019-04-30T01:31:21.128Z,36.400002
2019-04-30T01:36:48.284Z,38.200001
2019-04-30T01:42:11.095Z,38
2019-04-30T01:47:31.332Z,37.900002
2019-04-30T01:52:53.919Z,39.400002
2019-04-30T01:58:19.114Z,37.599998
2019-04-30T02:03:40.030Z,36.299999
2019-04-30T02:09:01.914Z,34.900002
2019-04-30T02:14:24.592Z,37.200001
2019-04-30T02:19:54.675Z,35.900002
2019-04-30T02:25:12.501Z,40.200001
2019-04-30T02:30:35.145Z,40
2019-04-30T02:36:00.351Z,38.5
2019-04-30T02:41:22.474Z,41.299999
2019-04-30T02:46:45.122Z,39.400002
2019-04-30T02:52:09.204Z,38.5
2019-04-30T02:57:30.445Z,38.200001
2019-04-30T03:02:53.103Z,36.700001
2019-04-30T03:08:19.701Z,40.5
2019-04-30T03:13:42.713Z,40
2019-04-30T03:19:02.802Z,40.900002
2019-04-30T03:24:26.028Z,40.5
2019-04-30T03:29:50.206Z,43
2019-04-30T03:35:12.968Z,40.700001
2019-04-30T03:40:34.877Z,42.700001
2019-04-30T03:45:59.259Z,45
2019-04-30T03:51:22.947Z,39.400002
2019-04-30T03:56:45.946Z,39.700001
2019-04-30T04:02:12.701Z,40.099998
2019-04-30T04:07:32.970Z,42.200001
2019-04-30T04:12:55.940Z,41.200001
2019-04-30T04:18:20.472Z,40.900002
2019-04-30T04:23:43.431Z,38.700001
2019-04-30T04:29:09.391Z,38
2019-04-30T04:34:30.396Z,40.099998
2019-04-30T04:39:53.796Z,36.099998
2019-04-30T04:45:19.562Z,37.700001
2019-04-30T04:50:40.083Z,39.400002
2019-04-30T04:56:02.509Z,44.200001
2019-04-30T05:01:25.256Z,43.900002
2019-04-30T05:06:49.752Z,40.700001
2019-04-30T05:12:11.675Z,39.700001
2019-04-30T05:17:34.388Z,40.299999
2019-04-30T05:22:58.470Z,42.400002
2019-04-30T05:28:20.031Z,38.900002
2019-04-30T05:33:42.764Z,37.599998
2019-04-30T05:39:05.551Z,40.200001
2019-04-30T05:44:29.812Z,38.599998
2019-04-30T05:49:52.665Z,38.599998
2019-04-30T05:55:15.523Z,39.700001
2019-04-30T06:00:39.936Z,38.099998
2019-04-30T06:06:02.807Z,38.599998
2019-04-30T06:11:25.572Z,39.900002
2019-04-30T06:16:51.689Z,38.599998
2019-04-30T06:22:12.277Z,38.200001
2019-04-30T06:27:34.032Z,36.799999
2019-04-30T06:32:59.303Z,42.5
2019-04-30T06:38:20.503Z,37.799999
2019-04-30T06:43:44.780Z,35.799999
2019-04-30T06:49:09.461Z,35.400002
2019-04-30T06:54:31.504Z,34.400002
2019-04-30T06:59:54.266Z,36.599998
2019-04-30T07:05:18.529Z,34
2019-04-30T07:10:52.667Z,36.099998
2019-04-30T07:16:03.223Z,35
2019-04-30T07:21:26.663Z,35.400002
2019-04-30T07:26:54.601Z,34.799999
2019-04-30T07:32:14.118Z,35.5
2019-04-30T07:37:38.889Z,34
2019-04-30T07:42:59.594Z,34.799999
2019-04-30T07:48:26.347Z,33.799999
2019-04-30T07:53:49.083Z,34.700001
2019-04-30T07:59:11.195Z,38
2019-04-30T08:04:34.031Z,34.599998
2019-04-30T08:09:58.753Z,33.200001
2019-04-30T08:15:19.858Z,33.700001
2019-04-30T08:20:42.241Z,31.700001
2019-04-30T08:26:05.024Z,32.799999
2019-04-30T08:31:29.178Z,31.9
2019-04-30T08:36:51.611Z,33.700001
2019-04-30T08:42:28.030Z,30.6
2019-04-30T08:47:39.367Z,30
2019-04-30T08:53:01.881Z,25.5
2019-04-30T08:58:24.623Z,30.299999
2019-04-30T09:03:50.755Z,28.6
2019-04-30T09:09:11.320Z,30
2019-04-30T09:14:34.022Z,27.9
2019-04-30T09:19:56.744Z,26
2019-04-30T09:25:19.597Z,25.4
2019-04-30T09:30:42.753Z,26.200001
2019-04-30T09:36:05.468Z,22.9
2019-04-30T09:41:29.261Z,21.700001
2019-04-30T09:46:52.090Z,23.799999
2019-04-30T09:52:14.804Z,22.200001
2019-04-30T09:57:39.037Z,22.299999
2019-04-30T10:03:00.766Z,24.1
2019-04-30T10:08:23.086Z,22.299999
2019-04-30T10:13:45.726Z,22.5
2019-04-30T10:19:10.225Z,23.5
2019-04-30T10:24:31.956Z,21.1
2019-04-30T10:29:54.623Z,21.799999
2019-04-30T10:35:18.307Z,22
2019-04-30T10:40:41.003Z,21.4
2019-04-30T10:46:03.623Z,23
2019-04-30T10:51:26.289Z,20.700001
2019-04-30T10:56:51.316Z,23.9
2019-04-30T11:02:12.585Z,24.299999
2019-04-30T11:07:35.239Z,24.4
2019-04-30T11:12:58.615Z,20.299999
2019-04-30T11:18:21.716Z,21.200001
2019-04-30T11:23:44.321Z,24.6
2019-04-30T11:29:07.809Z,21.6
2019-04-30T11:34:30.494Z,25.700001
2019-04-30T11:39:53.144Z,21.1
2019-04-30T11:45:15.880Z,19.6
2019-04-30T11:50:39.529Z,24.5
2019-04-30T11:56:02.161Z,23.700001
2019-04-30T12:01:25.025Z,22.200001
2019-04-30T12:06:48.539Z,23.4
2019-04-30T12:12:11.220Z,23.9
2019-04-30T12:17:33.926Z,24
2019-04-30T12:22:56.527Z,21.1
2019-04-30T12:28:19.610Z,20.6
2019-04-30T12:33:42.800Z,18.799999
2019-04-30T12:39:05.489Z,20.1
2019-04-30T12:44:28.153Z,18.200001
2019-04-30T12:49:51.073Z,19.9
2019-04-30T12:55:15.708Z,19.1
2019-04-30T13:00:39.065Z,19.6
2019-04-30T13:06:01.357Z,19.299999
2019-04-30T13:11:24.801Z,16.200001
2019-04-30T13:16:48.898Z,18.5
2019-04-30T13:22:11.279Z,19
2019-04-30T13:27:32.339Z,18.9
2019-04-30T13:32:55.034Z,18.299999
2019-04-30T13:38:18.636Z,17.9
2019-04-30T13:43:41.238Z,19.799999
2019-04-30T13:49:03.878Z,18.1
2019-04-30T13:54:26.683Z,20.299999
2019-04-30T13:59:51.060Z,18
2019-04-30T14:05:12.799Z,20.1
2019-04-30T14:10:35.511Z,18.799999
2019-04-30T14:15:59.258Z,19.4
2019-04-30T14:21:31.960Z,18.1
2019-04-30T14:26:45.610Z,17.4
2019-04-30T14:32:10.792Z,18.299999
2019-04-30T14:37:33.442Z,18.4
2019-04-30T14:42:56.608Z,17.4
2019-04-30T14:48:22.324Z,16.799999
2019-04-30T14:53:43.445Z,16
2019-04-30T14:59:06.131Z,15.9
2019-04-30T15:04:29.098Z,17.700001
2019-04-30T15:09:51.451Z,17.9
2019-04-30T15:15:14.775Z,17.4
2019-04-30T15:20:39.536Z,14
2019-04-30T15:26:00.205Z,13.2
2019-04-30T15:31:22.828Z,16.1
2019-04-30T15:36:45.498Z,15.6
2019-04-30T15:42:10.059Z,14.4
2019-04-30T15:47:32.879Z,17.299999
2019-04-30T15:52:55.555Z,17.5
2019-04-30T15:58:18.179Z,17.6
2019-04-30T16:03:40.834Z,16.6
2019-04-30T16:09:04.059Z,16.700001
2019-04-30T16:14:27.303Z,17.200001
2019-04-30T16:19:50.986Z,17.5
2019-04-30T16:25:13.617Z,17.5
2019-04-30T16:30:37.193Z,17.6
2019-04-30T16:35:59.787Z,16.1
2019-04-30T16:41:31.004Z,17
2019-04-30T16:46:46.080Z,16.9
2019-04-30T16:52:09.762Z,16.6
2019-04-30T16:57:32.517Z,17.1
2019-04-30T17:02:55.170Z,18.700001
2019-04-30T17:08:19.320Z,19.4
2019-04-30T17:13:40.507Z,19.200001
2019-04-30T17:19:04.295Z,20.4
2019-04-30T17:24:27.009Z,20.5
2019-04-30T17:29:50.595Z,20
2019-04-30T17:35:13.269Z,19.299999
2019-04-30T17:40:35.985Z,19.299999
2019-04-30T17:45:59.640Z,19.4
2019-04-30T17:51:23.407Z,19.799999
2019-04-30T17:56:46.038Z,19.799999
2019-04-30T18:02:09.619Z,19.5
2019-04-30T18:07:32.098Z,20.200001
2019-04-30T18:12:54.750Z,19.799999
2019-04-30T18:18:18.204Z,20.299999
2019-04-30T18:23:40.888Z,19.700001
2019-04-30T18:29:03.544Z,20.1
2019-04-30T18:34:26.272Z,21.1
2019-04-30T18:39:49.077Z,19.1
2019-04-30T18:45:11.798Z,22.4
2019-04-30T18:50:34.589Z,20.200001
2019-04-30T18:55:59.032Z,20.1
2019-04-30T19:01:20.046Z,21.299999
2019-04-30T19:06:43.733Z,21.1
2019-04-30T19:12:08.506Z,26.799999
2019-04-30T19:17:31.005Z,26.700001
2019-04-30T19:22:53.709Z,31.6
2019-04-30T19:28:18.805Z,30.799999
2019-04-30T19:33:39.950Z,34.400002
2019-04-30T19:39:02.706Z,34.299999
2019-04-30T19:44:26.092Z,35.200001
2019-04-30T19:49:49.899Z,35.799999
2019-04-30T19:55:12.669Z,37.400002
2019-04-30T20:00:35.424Z,37.200001
2019-04-30T20:05:59.178Z,37.599998
2019-04-30T20:11:22.723Z,36.5
2019-04-30T20:16:45.480Z,41
2019-04-30T20:22:09.535Z,43.400002
2019-04-30T20:27:31.915Z,41.5
2019-04-30T20:32:54.797Z,43.299999
2019-04-30T20:38:19.480Z,43.700001
2019-04-30T20:43:41.949Z,45
2019-04-30T20:49:04.649Z,46.099998
2019-04-30T20:54:29.065Z,44.099998
2019-04-30T20:59:50.401Z,45.299999
2019-04-30T21:05:13.114Z,40.700001
2019-04-30T21:10:35.851Z,38.900002
2019-04-30T21:15:59.621Z,39.700001
2019-04-30T21:21:22.383Z,38.599998
2019-04-30T21:26:45.022Z,36.200001
2019-04-30T21:32:07.755Z,36.799999
2019-04-30T21:37:30.592Z,36.700001
2019-04-30T21:42:54.270Z,36.5
2019-04-30T21:48:19.114Z,36.299999
2019-04-30T21:53:41.366Z,37.400002
2019-04-30T21:59:04.767Z,37.900002
2019-04-30T22:04:27.579Z,40.5
2019-04-30T22:09:50.328Z,40.200001
2019-04-30T22:15:13.137Z,39.599998
2019-04-30T22:20:35.939Z,41.599998
2019-04-30T22:25:58.834Z,42.400002
2019-04-30T22:31:21.607Z,44.200001
2019-04-30T22:36:45.512Z,46.5
2019-04-30T22:42:10.274Z,43.700001
2019-04-30T22:47:33.003Z,47.900002
2019-04-30T22:52:55.769Z,50.900002
2019-04-30T22:58:18.477Z,56.099998
2019-04-30T23:03:42.232Z,59.099998
2019-04-30T23:09:05.010Z,58.900002
2019-04-30T23:14:28.600Z,57.900002
2019-04-30T23:19:51.341Z,51
2019-04-30T23:25:13.995Z,53.5
2019-04-30T23:30:36.741Z,52.700001
2019-04-30T23:35:59.479Z,56.700001
2019-04-30T23:41:22.283Z,56.200001
2019-04-30T23:46:45.071Z,56.599998
2019-04-30T23:52:07.751Z,57.5
2019-04-30T23:57:30.560Z,56
